sensor_id;sensor_type;location;lat;lon;timestamp;P1;durP1;ratioP1;P2;durP2;ratioP2
64110;SDS011;50401;48.188;11.566;2024-03-23T00:55:51;4.50;;;2.50;;
64110;SDS011;50401;48.188;11.566;2024-03-23T00:58:17;4.35;;;2.20;;
64110;SDS011;50401;48.188;11.566;2024-03-23T01:00:42;7.65;;;2.88;;
64110;SDS011;50401;48.188;11.566;2024-03-23T01:03:08;5.05;;;2.40;;
64110;SDS011;50401;48.188;11.566;2024-03-23T01:05:33;8.20;;;2.42;;
64110;SDS011;50401;48.188;11.566;2024-03-23T01:07:59;5.93;;;2.25;;
64110;SDS011;50401;48.188;11.566;2024-03-23T01:10:24;3.17;;;2.05;;
64110;SDS011;50401;48.188;11.566;2024-03-23T01:12:50;6.78;;;2.22;;
64110;SDS011;50401;48.188;11.566;2024-03-23T01:15:15;5.05;;;2.40;;
64110;SDS011;50401;48.188;11.566;2024-03-23T01:17:41;5.45;;;2.47;;
64110;SDS011;50401;48.188;11.566;2024-03-23T01:20:06;3.97;;;2.35;;
64110;SDS011;50401;48.188;11.566;2024-03-23T01:22:32;8.65;;;2.17;;
64110;SDS011;50401;48.188;11.566;2024-03-23T01:24:58;9.02;;;2.50;;
64110;SDS011;50401;48.188;11.566;2024-03-23T01:27:24;5.43;;;2.65;;
64110;SDS011;50401;48.188;11.566;2024-03-23T01:29:49;3.65;;;2.20;;
64110;SDS011;50401;48.188;11.566;2024-03-23T01:32:15;6.30;;;2.65;;
64110;SDS011;50401;48.188;11.566;2024-03-23T01:34:41;5.35;;;2.83;;
64110;SDS011;50401;48.188;11.566;2024-03-23T01:37:06;5.72;;;2.28;;
64110;SDS011;50401;48.188;11.566;2024-03-23T01:39:32;4.15;;;2.30;;
64110;SDS011;50401;48.188;11.566;2024-03-23T01:41:57;6.05;;;2.10;;
64110;SDS011;50401;48.188;11.566;2024-03-23T01:44:23;5.45;;;2.38;;
64110;SDS011;50401;48.188;11.566;2024-03-23T01:46:48;4.43;;;2.10;;
64110;SDS011;50401;48.188;11.566;2024-03-23T01:49:14;4.10;;;2.00;;
64110;SDS011;50401;48.188;11.566;2024-03-23T01:51:39;4.45;;;2.10;;
64110;SDS011;50401;48.188;11.566;2024-03-23T01:54:06;3.17;;;2.30;;
64110;SDS011;50401;48.188;11.566;2024-03-23T01:56:33;4.60;;;2.65;;
64110;SDS011;50401;48.188;11.566;2024-03-23T01:59:02;3.60;;;2.10;;
64110;SDS011;50401;48.188;11.566;2024-03-23T02:01:30;5.63;;;2.28;;
64110;SDS011;50401;48.188;11.566;2024-03-23T02:03:56;4.30;;;2.42;;
64110;SDS011;50401;48.188;11.566;2024-03-23T02:06:22;5.70;;;2.65;;
64110;SDS011;50401;48.188;11.566;2024-03-23T02:08:49;5.40;;;2.10;;
64110;SDS011;50401;48.188;11.566;2024-03-23T02:11:14;5.55;;;2.40;;
64110;SDS011;50401;48.188;11.566;2024-03-23T02:13:40;5.20;;;2.33;;
64110;SDS011;50401;48.188;11.566;2024-03-23T02:16:05;6.40;;;2.38;;
64110;SDS011;50401;48.188;11.566;2024-03-23T02:18:32;4.80;;;2.50;;
64110;SDS011;50401;48.188;11.566;2024-03-23T02:20:57;4.65;;;2.72;;
64110;SDS011;50401;48.188;11.566;2024-03-23T02:23:23;5.28;;;2.45;;
64110;SDS011;50401;48.188;11.566;2024-03-23T02:25:49;8.65;;;3.42;;
64110;SDS011;50401;48.188;11.566;2024-03-23T02:28:15;3.72;;;2.70;;
64110;SDS011;50401;48.188;11.566;2024-03-23T02:30:40;5.65;;;3.20;;
64110;SDS011;50401;48.188;11.566;2024-03-23T02:33:06;6.03;;;2.80;;
64110;SDS011;50401;48.188;11.566;2024-03-23T02:35:32;7.72;;;2.88;;
64110;SDS011;50401;48.188;11.566;2024-03-23T02:37:58;5.13;;;2.80;;
64110;SDS011;50401;48.188;11.566;2024-03-23T02:40:24;5.40;;;2.28;;
64110;SDS011;50401;48.188;11.566;2024-03-23T02:42:50;6.78;;;2.97;;
64110;SDS011;50401;48.188;11.566;2024-03-23T02:45:15;4.40;;;2.88;;
64110;SDS011;50401;48.188;11.566;2024-03-23T02:47:41;4.65;;;2.78;;
64110;SDS011;50401;48.188;11.566;2024-03-23T02:50:07;4.50;;;2.80;;
64110;SDS011;50401;48.188;11.566;2024-03-23T02:52:33;6.05;;;2.85;;
64110;SDS011;50401;48.188;11.566;2024-03-23T02:54:59;7.60;;;3.08;;
64110;SDS011;50401;48.188;11.566;2024-03-23T02:57:24;5.95;;;3.22;;
64110;SDS011;50401;48.188;11.566;2024-03-23T02:59:50;4.43;;;3.50;;
64110;SDS011;50401;48.188;11.566;2024-03-23T03:02:15;7.93;;;3.53;;
64110;SDS011;50401;48.188;11.566;2024-03-23T03:04:41;5.43;;;2.72;;
64110;SDS011;50401;48.188;11.566;2024-03-23T03:07:06;8.18;;;3.10;;
64110;SDS011;50401;48.188;11.566;2024-03-23T03:09:35;4.32;;;2.65;;
64110;SDS011;50401;48.188;11.566;2024-03-23T03:12:03;7.68;;;3.25;;
64110;SDS011;50401;48.188;11.566;2024-03-23T03:14:29;3.17;;;2.88;;
64110;SDS011;50401;48.188;11.566;2024-03-23T03:16:54;5.10;;;2.97;;
64110;SDS011;50401;48.188;11.566;2024-03-23T03:19:20;7.70;;;3.47;;
64110;SDS011;50401;48.188;11.566;2024-03-23T03:21:45;6.43;;;3.10;;
64110;SDS011;50401;48.188;11.566;2024-03-23T03:24:12;8.77;;;3.67;;
64110;SDS011;50401;48.188;11.566;2024-03-23T03:26:38;10.13;;;3.47;;
64110;SDS011;50401;48.188;11.566;2024-03-23T03:29:04;6.68;;;3.40;;
64110;SDS011;50401;48.188;11.566;2024-03-23T03:31:29;5.50;;;2.97;;
64110;SDS011;50401;48.188;11.566;2024-03-23T03:33:54;11.90;;;3.30;;
64110;SDS011;50401;48.188;11.566;2024-03-23T03:36:20;6.15;;;2.88;;
64110;SDS011;50401;48.188;11.566;2024-03-23T03:38:46;7.70;;;3.30;;
64110;SDS011;50401;48.188;11.566;2024-03-23T03:41:12;6.65;;;3.13;;
64110;SDS011;50401;48.188;11.566;2024-03-23T03:43:37;9.10;;;3.50;;
64110;SDS011;50401;48.188;11.566;2024-03-23T03:46:03;8.52;;;2.85;;
64110;SDS011;50401;48.188;11.566;2024-03-23T03:48:28;4.03;;;2.90;;
64110;SDS011;50401;48.188;11.566;2024-03-23T03:50:54;6.20;;;3.22;;
64110;SDS011;50401;48.188;11.566;2024-03-23T03:53:20;4.80;;;3.00;;
64110;SDS011;50401;48.188;11.566;2024-03-23T03:55:46;7.05;;;2.95;;
64110;SDS011;50401;48.188;11.566;2024-03-23T03:58:11;4.35;;;3.00;;
64110;SDS011;50401;48.188;11.566;2024-03-23T04:00:37;8.65;;;3.05;;
64110;SDS011;50401;48.188;11.566;2024-03-23T04:03:02;4.07;;;3.00;;
64110;SDS011;50401;48.188;11.566;2024-03-23T04:05:28;5.28;;;2.90;;
64110;SDS011;50401;48.188;11.566;2024-03-23T04:07:54;7.25;;;3.00;;
64110;SDS011;50401;48.188;11.566;2024-03-23T04:10:20;5.78;;;3.80;;
64110;SDS011;50401;48.188;11.566;2024-03-23T04:12:46;8.73;;;3.47;;
64110;SDS011;50401;48.188;11.566;2024-03-23T04:15:12;10.23;;;3.40;;
64110;SDS011;50401;48.188;11.566;2024-03-23T04:17:38;10.52;;;3.10;;
64110;SDS011;50401;48.188;11.566;2024-03-23T04:20:03;5.00;;;2.38;;
64110;SDS011;50401;48.188;11.566;2024-03-23T04:22:33;8.75;;;2.60;;
64110;SDS011;50401;48.188;11.566;2024-03-23T04:24:59;5.50;;;2.60;;
64110;SDS011;50401;48.188;11.566;2024-03-23T04:27:25;4.32;;;2.90;;
64110;SDS011;50401;48.188;11.566;2024-03-23T04:29:51;5.90;;;2.83;;
64110;SDS011;50401;48.188;11.566;2024-03-23T04:32:18;9.20;;;3.13;;
64110;SDS011;50401;48.188;11.566;2024-03-23T04:34:44;8.07;;;2.55;;
64110;SDS011;50401;48.188;11.566;2024-03-23T04:37:10;6.00;;;2.78;;
64110;SDS011;50401;48.188;11.566;2024-03-23T04:39:36;7.47;;;2.58;;
64110;SDS011;50401;48.188;11.566;2024-03-23T04:42:02;7.85;;;2.90;;
64110;SDS011;50401;48.188;11.566;2024-03-23T04:44:28;8.63;;;3.03;;
64110;SDS011;50401;48.188;11.566;2024-03-23T04:46:53;6.72;;;2.72;;
64110;SDS011;50401;48.188;11.566;2024-03-23T04:49:19;4.50;;;2.88;;
64110;SDS011;50401;48.188;11.566;2024-03-23T04:51:44;7.68;;;2.95;;
64110;SDS011;50401;48.188;11.566;2024-03-23T04:54:14;4.43;;;2.75;;
64110;SDS011;50401;48.188;11.566;2024-03-23T04:56:40;4.65;;;3.05;;
64110;SDS011;50401;48.188;11.566;2024-03-23T04:59:06;5.22;;;2.45;;
64110;SDS011;50401;48.188;11.566;2024-03-23T05:01:31;4.35;;;2.40;;
64110;SDS011;50401;48.188;11.566;2024-03-23T05:03:57;6.60;;;2.70;;
64110;SDS011;50401;48.188;11.566;2024-03-23T05:06:23;7.45;;;2.53;;
64110;SDS011;50401;48.188;11.566;2024-03-23T05:08:50;5.00;;;2.60;;
64110;SDS011;50401;48.188;11.566;2024-03-23T05:11:16;4.20;;;2.33;;
64110;SDS011;50401;48.188;11.566;2024-03-23T05:13:42;4.28;;;2.00;;
64110;SDS011;50401;48.188;11.566;2024-03-23T05:16:07;6.65;;;2.38;;
64110;SDS011;50401;48.188;11.566;2024-03-23T05:18:33;7.07;;;2.67;;
64110;SDS011;50401;48.188;11.566;2024-03-23T05:20:59;7.57;;;2.55;;
64110;SDS011;50401;48.188;11.566;2024-03-23T05:23:25;3.97;;;2.25;;
64110;SDS011;50401;48.188;11.566;2024-03-23T05:25:51;9.07;;;2.70;;
64110;SDS011;50401;48.188;11.566;2024-03-23T05:28:17;5.32;;;2.80;;
64110;SDS011;50401;48.188;11.566;2024-03-23T05:30:43;5.78;;;2.75;;
64110;SDS011;50401;48.188;11.566;2024-03-23T05:33:08;5.00;;;2.72;;
64110;SDS011;50401;48.188;11.566;2024-03-23T05:35:34;4.93;;;2.60;;
64110;SDS011;50401;48.188;11.566;2024-03-23T05:37:59;6.25;;;2.95;;
64110;SDS011;50401;48.188;11.566;2024-03-23T05:40:26;10.60;;;3.08;;
64110;SDS011;50401;48.188;11.566;2024-03-23T05:42:52;4.25;;;2.30;;
64110;SDS011;50401;48.188;11.566;2024-03-23T05:45:21;6.10;;;2.67;;
64110;SDS011;50401;48.188;11.566;2024-03-23T05:47:47;3.88;;;2.38;;
64110;SDS011;50401;48.188;11.566;2024-03-23T05:50:13;5.97;;;2.25;;
64110;SDS011;50401;48.188;11.566;2024-03-23T05:52:39;5.63;;;2.63;;
64110;SDS011;50401;48.188;11.566;2024-03-23T05:55:05;6.82;;;2.40;;
64110;SDS011;50401;48.188;11.566;2024-03-23T05:57:31;6.97;;;2.35;;
64110;SDS011;50401;48.188;11.566;2024-03-23T05:59:57;4.28;;;2.85;;
64110;SDS011;50401;48.188;11.566;2024-03-23T06:02:22;4.57;;;2.70;;
64110;SDS011;50401;48.188;11.566;2024-03-23T06:04:49;6.60;;;2.08;;
64110;SDS011;50401;48.188;11.566;2024-03-23T06:07:14;10.27;;;4.25;;
64110;SDS011;50401;48.188;11.566;2024-03-23T06:09:40;14.50;;;2.70;;
64110;SDS011;50401;48.188;11.566;2024-03-23T06:12:07;14.82;;;3.65;;
64110;SDS011;50401;48.188;11.566;2024-03-23T06:14:33;6.25;;;3.65;;
64110;SDS011;50401;48.188;11.566;2024-03-23T06:16:59;9.52;;;3.20;;
64110;SDS011;50401;48.188;11.566;2024-03-23T06:19:25;5.68;;;2.50;;
64110;SDS011;50401;48.188;11.566;2024-03-23T06:21:52;5.53;;;2.50;;
64110;SDS011;50401;48.188;11.566;2024-03-23T06:24:21;3.38;;;1.88;;
64110;SDS011;50401;48.188;11.566;2024-03-23T06:26:47;14.00;;;2.60;;
64110;SDS011;50401;48.188;11.566;2024-03-23T06:29:13;5.20;;;1.95;;
64110;SDS011;50401;48.188;11.566;2024-03-23T06:31:38;3.88;;;1.70;;
64110;SDS011;50401;48.188;11.566;2024-03-23T06:34:04;4.60;;;2.05;;
64110;SDS011;50401;48.188;11.566;2024-03-23T06:36:29;4.07;;;2.15;;
64110;SDS011;50401;48.188;11.566;2024-03-23T06:38:56;3.13;;;2.28;;
64110;SDS011;50401;48.188;11.566;2024-03-23T06:41:21;8.40;;;2.60;;
64110;SDS011;50401;48.188;11.566;2024-03-23T06:43:47;4.40;;;2.60;;
64110;SDS011;50401;48.188;11.566;2024-03-23T06:46:12;2.17;;;1.60;;
64110;SDS011;50401;48.188;11.566;2024-03-23T06:48:38;4.93;;;1.80;;
64110;SDS011;50401;48.188;11.566;2024-03-23T06:51:03;6.90;;;2.80;;
64110;SDS011;50401;48.188;11.566;2024-03-23T06:53:29;5.90;;;2.20;;
64110;SDS011;50401;48.188;11.566;2024-03-23T06:55:54;11.63;;;2.30;;
64110;SDS011;50401;48.188;11.566;2024-03-23T06:58:21;5.90;;;1.95;;
64110;SDS011;50401;48.188;11.566;2024-03-23T07:00:48;7.07;;;1.83;;
64110;SDS011;50401;48.188;11.566;2024-03-23T07:03:14;4.53;;;1.90;;
64110;SDS011;50401;48.188;11.566;2024-03-23T07:05:40;4.43;;;1.58;;
64110;SDS011;50401;48.188;11.566;2024-03-23T07:08:05;2.78;;;1.55;;
64110;SDS011;50401;48.188;11.566;2024-03-23T07:10:31;3.63;;;2.00;;
64110;SDS011;50401;48.188;11.566;2024-03-23T07:12:56;4.43;;;1.80;;
64110;SDS011;50401;48.188;11.566;2024-03-23T07:15:22;5.25;;;1.70;;
64110;SDS011;50401;48.188;11.566;2024-03-23T07:17:47;4.05;;;1.35;;
64110;SDS011;50401;48.188;11.566;2024-03-23T07:20:13;2.95;;;1.50;;
64110;SDS011;50401;48.188;11.566;2024-03-23T07:22:39;2.97;;;1.52;;
64110;SDS011;50401;48.188;11.566;2024-03-23T07:25:04;4.53;;;1.40;;
64110;SDS011;50401;48.188;11.566;2024-03-23T07:27:31;7.72;;;1.70;;
64110;SDS011;50401;48.188;11.566;2024-03-23T07:29:56;2.10;;;1.60;;
64110;SDS011;50401;48.188;11.566;2024-03-23T07:32:22;4.80;;;1.50;;
64110;SDS011;50401;48.188;11.566;2024-03-23T07:34:48;2.28;;;1.27;;
64110;SDS011;50401;48.188;11.566;2024-03-23T07:37:13;7.68;;;1.80;;
64110;SDS011;50401;48.188;11.566;2024-03-23T07:39:39;5.07;;;1.67;;
64110;SDS011;50401;48.188;11.566;2024-03-23T07:42:05;16.30;;;2.42;;
64110;SDS011;50401;48.188;11.566;2024-03-23T07:44:31;9.15;;;2.40;;
64110;SDS011;50401;48.188;11.566;2024-03-23T07:46:57;5.35;;;1.63;;
64110;SDS011;50401;48.188;11.566;2024-03-23T07:49:23;5.97;;;2.50;;
64110;SDS011;50401;48.188;11.566;2024-03-23T07:51:49;12.32;;;1.90;;
64110;SDS011;50401;48.188;11.566;2024-03-23T07:54:15;6.20;;;1.63;;
64110;SDS011;50401;48.188;11.566;2024-03-23T07:56:40;4.32;;;1.75;;
64110;SDS011;50401;48.188;11.566;2024-03-23T07:59:06;4.65;;;2.10;;
64110;SDS011;50401;48.188;11.566;2024-03-23T08:01:31;2.28;;;1.70;;
64110;SDS011;50401;48.188;11.566;2024-03-23T08:03:56;3.13;;;1.70;;
64110;SDS011;50401;48.188;11.566;2024-03-23T08:06:22;3.90;;;2.10;;
64110;SDS011;50401;48.188;11.566;2024-03-23T08:08:50;3.50;;;2.08;;
64110;SDS011;50401;48.188;11.566;2024-03-23T08:11:24;4.35;;;2.17;;
64110;SDS011;50401;48.188;11.566;2024-03-23T08:13:51;3.45;;;1.67;;
64110;SDS011;50401;48.188;11.566;2024-03-23T08:16:16;5.05;;;2.00;;
64110;SDS011;50401;48.188;11.566;2024-03-23T08:18:41;4.30;;;2.28;;
64110;SDS011;50401;48.188;11.566;2024-03-23T08:21:07;4.47;;;2.08;;
64110;SDS011;50401;48.188;11.566;2024-03-23T08:23:34;2.10;;;1.90;;
64110;SDS011;50401;48.188;11.566;2024-03-23T08:26:04;5.80;;;2.50;;
64110;SDS011;50401;48.188;11.566;2024-03-23T08:28:31;5.65;;;2.20;;
64110;SDS011;50401;48.188;11.566;2024-03-23T08:31:00;7.43;;;2.03;;
64110;SDS011;50401;48.188;11.566;2024-03-23T08:33:26;3.88;;;1.92;;
64110;SDS011;50401;48.188;11.566;2024-03-23T08:35:58;4.85;;;1.80;;
64110;SDS011;50401;48.188;11.566;2024-03-23T08:38:27;5.20;;;2.05;;
64110;SDS011;50401;48.188;11.566;2024-03-23T08:40:56;2.20;;;1.75;;
64110;SDS011;50401;48.188;11.566;2024-03-23T08:43:27;5.55;;;2.10;;
64110;SDS011;50401;48.188;11.566;2024-03-23T08:46:02;2.78;;;2.03;;
64110;SDS011;50401;48.188;11.566;2024-03-23T08:48:29;3.00;;;2.03;;
64110;SDS011;50401;48.188;11.566;2024-03-23T08:53:29;3.15;;;1.65;;
64110;SDS011;50401;48.188;11.566;2024-03-23T08:55:58;4.65;;;2.08;;
64110;SDS011;50401;48.188;11.566;2024-03-23T08:58:24;3.72;;;1.92;;
64110;SDS011;50401;48.188;11.566;2024-03-23T09:00:51;4.53;;;2.30;;
64110;SDS011;50401;48.188;11.566;2024-03-23T09:03:17;4.18;;;2.28;;
64110;SDS011;50401;48.188;11.566;2024-03-23T09:05:43;2.85;;;1.90;;
64110;SDS011;50401;48.188;11.566;2024-03-23T09:08:08;4.35;;;2.10;;
64110;SDS011;50401;48.188;11.566;2024-03-23T09:10:40;6.63;;;2.70;;
64110;SDS011;50401;48.188;11.566;2024-03-23T09:13:07;4.00;;;2.60;;
64110;SDS011;50401;48.188;11.566;2024-03-23T09:15:36;4.35;;;2.30;;
64110;SDS011;50401;48.188;11.566;2024-03-23T09:18:10;3.50;;;2.35;;
64110;SDS011;50401;48.188;11.566;2024-03-23T09:20:36;5.75;;;2.42;;
64110;SDS011;50401;48.188;11.566;2024-03-23T09:23:01;7.40;;;2.25;;
64110;SDS011;50401;48.188;11.566;2024-03-23T09:25:27;4.35;;;2.22;;
64110;SDS011;50401;48.188;11.566;2024-03-23T09:27:52;5.43;;;2.80;;
64110;SDS011;50401;48.188;11.566;2024-03-23T09:30:17;3.83;;;2.28;;
64110;SDS011;50401;48.188;11.566;2024-03-23T09:32:44;3.50;;;2.30;;
64110;SDS011;50401;48.188;11.566;2024-03-23T09:35:10;5.28;;;2.75;;
64110;SDS011;50401;48.188;11.566;2024-03-23T09:37:36;4.38;;;2.63;;
64110;SDS011;50401;48.188;11.566;2024-03-23T09:40:05;4.83;;;1.70;;
64110;SDS011;50401;48.188;11.566;2024-03-23T09:42:32;3.63;;;1.55;;
64110;SDS011;50401;48.188;11.566;2024-03-23T09:44:59;2.45;;;1.33;;
64110;SDS011;50401;48.188;11.566;2024-03-23T09:47:25;4.20;;;1.90;;
64110;SDS011;50401;48.188;11.566;2024-03-23T09:49:51;2.95;;;1.40;;
64110;SDS011;50401;48.188;11.566;2024-03-23T09:52:17;1.95;;;1.38;;
64110;SDS011;50401;48.188;11.566;2024-03-23T09:54:42;6.35;;;1.40;;
64110;SDS011;50401;48.188;11.566;2024-03-23T09:57:08;3.03;;;1.40;;
64110;SDS011;50401;48.188;11.566;2024-03-23T09:59:33;1.65;;;1.40;;
64110;SDS011;50401;48.188;11.566;2024-03-23T10:01:59;2.72;;;1.20;;
64110;SDS011;50401;48.188;11.566;2024-03-23T10:04:39;2.55;;;1.00;;
64110;SDS011;50401;48.188;11.566;2024-03-23T10:07:15;2.22;;;1.40;;
64110;SDS011;50401;48.188;11.566;2024-03-23T10:09:43;4.97;;;1.40;;
64110;SDS011;50401;48.188;11.566;2024-03-23T10:12:10;2.22;;;0.93;;
64110;SDS011;50401;48.188;11.566;2024-03-23T10:14:37;1.55;;;0.60;;
64110;SDS011;50401;48.188;11.566;2024-03-23T10:17:21;0.98;;;0.90;;
64110;SDS011;50401;48.188;11.566;2024-03-23T10:19:50;4.53;;;1.05;;
64110;SDS011;50401;48.188;11.566;2024-03-23T10:22:17;1.73;;;0.65;;
64110;SDS011;50401;48.188;11.566;2024-03-23T10:24:44;2.88;;;0.80;;
64110;SDS011;50401;48.188;11.566;2024-03-23T10:27:17;0.80;;;0.80;;
64110;SDS011;50401;48.188;11.566;2024-03-23T10:29:44;1.17;;;1.00;;
64110;SDS011;50401;48.188;11.566;2024-03-23T10:32:16;4.50;;;0.80;;
64110;SDS011;50401;48.188;11.566;2024-03-23T10:34:42;1.30;;;0.80;;
64110;SDS011;50401;48.188;11.566;2024-03-23T10:37:08;1.20;;;1.00;;
64110;SDS011;50401;48.188;11.566;2024-03-23T10:39:38;3.25;;;1.40;;
64110;SDS011;50401;48.188;11.566;2024-03-23T10:42:05;1.95;;;1.23;;
64110;SDS011;50401;48.188;11.566;2024-03-23T10:44:32;2.17;;;1.17;;
64110;SDS011;50401;48.188;11.566;2024-03-23T10:46:59;3.78;;;1.63;;
64110;SDS011;50401;48.188;11.566;2024-03-23T10:49:26;2.95;;;1.52;;
64110;SDS011;50401;48.188;11.566;2024-03-23T10:51:59;3.83;;;1.67;;
64110;SDS011;50401;48.188;11.566;2024-03-23T10:54:25;7.20;;;1.73;;
64110;SDS011;50401;48.188;11.566;2024-03-23T10:56:54;5.03;;;1.40;;
64110;SDS011;50401;48.188;11.566;2024-03-23T10:59:25;3.17;;;1.10;;
64110;SDS011;50401;48.188;11.566;2024-03-23T11:01:54;2.08;;;1.33;;
64110;SDS011;50401;48.188;11.566;2024-03-23T11:06:56;3.25;;;0.93;;
64110;SDS011;50401;48.188;11.566;2024-03-23T11:12:13;3.10;;;0.90;;
64110;SDS011;50401;48.188;11.566;2024-03-23T11:14:43;3.50;;;0.73;;
64110;SDS011;50401;48.188;11.566;2024-03-23T11:17:08;2.28;;;0.80;;
64110;SDS011;50401;48.188;11.566;2024-03-23T11:19:35;5.32;;;1.20;;
64110;SDS011;50401;48.188;11.566;2024-03-23T11:22:02;6.53;;;1.00;;
64110;SDS011;50401;48.188;11.566;2024-03-23T11:24:28;3.55;;;1.10;;
64110;SDS011;50401;48.188;11.566;2024-03-23T11:26:54;2.50;;;0.93;;
64110;SDS011;50401;48.188;11.566;2024-03-23T11:29:19;2.28;;;1.05;;
64110;SDS011;50401;48.188;11.566;2024-03-23T11:31:48;5.35;;;1.00;;
64110;SDS011;50401;48.188;11.566;2024-03-23T11:39:18;3.10;;;1.20;;
64110;SDS011;50401;48.188;11.566;2024-03-23T11:41:46;2.10;;;0.98;;
64110;SDS011;50401;48.188;11.566;2024-03-23T11:44:20;3.13;;;1.20;;
64110;SDS011;50401;48.188;11.566;2024-03-23T11:49:32;3.15;;;1.50;;
64110;SDS011;50401;48.188;11.566;2024-03-23T11:51:57;5.90;;;1.20;;
64110;SDS011;50401;48.188;11.566;2024-03-23T11:54:24;2.58;;;1.52;;
64110;SDS011;50401;48.188;11.566;2024-03-23T11:56:56;2.78;;;1.50;;
64110;SDS011;50401;48.188;11.566;2024-03-23T12:02:09;2.45;;;1.38;;
64110;SDS011;50401;48.188;11.566;2024-03-23T12:04:36;8.15;;;1.30;;
64110;SDS011;50401;48.188;11.566;2024-03-23T12:10:03;5.15;;;1.80;;
64110;SDS011;50401;48.188;11.566;2024-03-23T12:12:31;3.97;;;1.52;;
64110;SDS011;50401;48.188;11.566;2024-03-23T12:15:03;3.33;;;1.60;;
64110;SDS011;50401;48.188;11.566;2024-03-23T12:17:30;3.10;;;1.50;;
64110;SDS011;50401;48.188;11.566;2024-03-23T12:19:56;4.82;;;1.70;;
64110;SDS011;50401;48.188;11.566;2024-03-23T12:22:22;5.40;;;1.80;;
64110;SDS011;50401;48.188;11.566;2024-03-23T12:24:48;6.28;;;1.52;;
64110;SDS011;50401;48.188;11.566;2024-03-23T12:27:14;2.03;;;1.40;;
64110;SDS011;50401;48.188;11.566;2024-03-23T12:29:42;5.05;;;2.20;;
64110;SDS011;50401;48.188;11.566;2024-03-23T12:32:10;7.80;;;1.98;;
64110;SDS011;50401;48.188;11.566;2024-03-23T12:34:36;3.88;;;1.55;;
64110;SDS011;50401;48.188;11.566;2024-03-23T12:37:02;5.65;;;1.92;;
64110;SDS011;50401;48.188;11.566;2024-03-23T12:39:27;4.60;;;1.80;;
64110;SDS011;50401;48.188;11.566;2024-03-23T12:41:53;6.93;;;1.80;;
64110;SDS011;50401;48.188;11.566;2024-03-23T12:44:18;8.25;;;2.10;;
64110;SDS011;50401;48.188;11.566;2024-03-23T12:46:44;11.57;;;2.47;;
64110;SDS011;50401;48.188;11.566;2024-03-23T12:49:10;9.07;;;2.38;;
64110;SDS011;50401;48.188;11.566;2024-03-23T12:51:35;4.88;;;1.92;;
64110;SDS011;50401;48.188;11.566;2024-03-23T12:54:01;7.63;;;2.00;;
64110;SDS011;50401;48.188;11.566;2024-03-23T12:56:26;6.00;;;2.15;;
64110;SDS011;50401;48.188;11.566;2024-03-23T12:58:55;3.60;;;1.65;;
64110;SDS011;50401;48.188;11.566;2024-03-23T13:01:25;9.60;;;2.30;;
64110;SDS011;50401;48.188;11.566;2024-03-23T13:03:51;7.45;;;1.98;;
64110;SDS011;50401;48.188;11.566;2024-03-23T13:06:17;6.10;;;2.30;;
64110;SDS011;50401;48.188;11.566;2024-03-23T13:08:46;5.78;;;2.20;;
64110;SDS011;50401;48.188;11.566;2024-03-23T13:11:11;10.00;;;2.35;;
64110;SDS011;50401;48.188;11.566;2024-03-23T13:13:38;7.20;;;1.95;;
64110;SDS011;50401;48.188;11.566;2024-03-23T13:16:04;4.75;;;2.00;;
64110;SDS011;50401;48.188;11.566;2024-03-23T13:18:30;7.85;;;2.22;;
64110;SDS011;50401;48.188;11.566;2024-03-23T13:20:56;13.82;;;2.60;;
64110;SDS011;50401;48.188;11.566;2024-03-23T13:23:22;4.38;;;2.10;;
64110;SDS011;50401;48.188;11.566;2024-03-23T13:25:51;6.93;;;2.60;;
64110;SDS011;50401;48.188;11.566;2024-03-23T13:28:20;4.53;;;2.38;;
64110;SDS011;50401;48.188;11.566;2024-03-23T13:30:56;5.00;;;2.50;;
64110;SDS011;50401;48.188;11.566;2024-03-23T13:33:22;7.32;;;2.40;;
64110;SDS011;50401;48.188;11.566;2024-03-23T13:35:52;5.50;;;2.47;;
64110;SDS011;50401;48.188;11.566;2024-03-23T13:38:18;8.55;;;2.22;;
64110;SDS011;50401;48.188;11.566;2024-03-23T13:40:57;11.18;;;3.08;;
64110;SDS011;50401;48.188;11.566;2024-03-23T13:43:24;7.85;;;2.20;;
64110;SDS011;50401;48.188;11.566;2024-03-23T13:45:54;7.93;;;2.83;;
64110;SDS011;50401;48.188;11.566;2024-03-23T13:48:21;9.93;;;3.03;;
64110;SDS011;50401;48.188;11.566;2024-03-23T13:50:47;8.48;;;2.70;;
64110;SDS011;50401;48.188;11.566;2024-03-23T13:53:21;8.48;;;3.03;;
64110;SDS011;50401;48.188;11.566;2024-03-23T13:55:48;10.05;;;3.15;;
64110;SDS011;50401;48.188;11.566;2024-03-23T13:58:14;10.98;;;3.83;;
64110;SDS011;50401;48.188;11.566;2024-03-23T14:00:40;11.23;;;4.22;;
64110;SDS011;50401;48.188;11.566;2024-03-23T14:03:08;11.80;;;3.90;;
64110;SDS011;50401;48.188;11.566;2024-03-23T14:05:34;7.78;;;3.40;;
64110;SDS011;50401;48.188;11.566;2024-03-23T14:07:59;10.00;;;3.53;;
64110;SDS011;50401;48.188;11.566;2024-03-23T14:10:25;12.07;;;4.25;;
64110;SDS011;50401;48.188;11.566;2024-03-23T14:12:51;10.82;;;4.18;;
64110;SDS011;50401;48.188;11.566;2024-03-23T14:15:16;12.90;;;3.53;;
64110;SDS011;50401;48.188;11.566;2024-03-23T14:17:43;9.57;;;3.65;;
64110;SDS011;50401;48.188;11.566;2024-03-23T14:20:08;9.35;;;3.35;;
64110;SDS011;50401;48.188;11.566;2024-03-23T14:22:36;13.05;;;3.60;;
64110;SDS011;50401;48.188;11.566;2024-03-23T14:25:02;9.90;;;3.28;;
64110;SDS011;50401;48.188;11.566;2024-03-23T14:27:28;14.10;;;4.63;;
64110;SDS011;50401;48.188;11.566;2024-03-23T14:29:53;10.07;;;4.03;;
64110;SDS011;50401;48.188;11.566;2024-03-23T14:32:19;9.38;;;3.78;;
64110;SDS011;50401;48.188;11.566;2024-03-23T14:34:45;9.05;;;3.83;;
64110;SDS011;50401;48.188;11.566;2024-03-23T14:37:11;11.13;;;3.88;;
64110;SDS011;50401;48.188;11.566;2024-03-23T14:39:37;11.43;;;3.35;;
64110;SDS011;50401;48.188;11.566;2024-03-23T14:42:06;7.85;;;3.28;;
64110;SDS011;50401;48.188;11.566;2024-03-23T14:44:33;11.60;;;3.00;;
64110;SDS011;50401;48.188;11.566;2024-03-23T14:46:59;5.45;;;2.42;;
64110;SDS011;50401;48.188;11.566;2024-03-23T14:49:24;7.78;;;2.15;;
64110;SDS011;50401;48.188;11.566;2024-03-23T14:51:51;7.05;;;2.25;;
64110;SDS011;50401;48.188;11.566;2024-03-23T14:54:16;7.75;;;1.83;;
64110;SDS011;50401;48.188;11.566;2024-03-23T14:56:42;7.32;;;2.00;;
64110;SDS011;50401;48.188;11.566;2024-03-23T14:59:07;10.50;;;2.17;;
64110;SDS011;50401;48.188;11.566;2024-03-23T15:01:33;4.32;;;2.13;;
64110;SDS011;50401;48.188;11.566;2024-03-23T15:03:59;8.57;;;2.60;;
64110;SDS011;50401;48.188;11.566;2024-03-23T15:06:25;5.75;;;2.20;;
64110;SDS011;50401;48.188;11.566;2024-03-23T15:08:50;8.50;;;1.95;;
64110;SDS011;50401;48.188;11.566;2024-03-23T15:11:16;5.72;;;1.90;;
64110;SDS011;50401;48.188;11.566;2024-03-23T15:13:44;7.93;;;2.30;;
64110;SDS011;50401;48.188;11.566;2024-03-23T15:16:10;4.13;;;2.08;;
64110;SDS011;50401;48.188;11.566;2024-03-23T15:18:35;7.97;;;2.10;;
64110;SDS011;50401;48.188;11.566;2024-03-23T15:21:01;10.23;;;2.50;;
64110;SDS011;50401;48.188;11.566;2024-03-23T15:23:30;14.50;;;2.92;;
64110;SDS011;50401;48.188;11.566;2024-03-23T15:25:56;10.40;;;2.15;;
64110;SDS011;50401;48.188;11.566;2024-03-23T15:28:28;5.57;;;2.50;;
64110;SDS011;50401;48.188;11.566;2024-03-23T15:31:05;6.93;;;3.03;;
64110;SDS011;50401;48.188;11.566;2024-03-23T15:33:31;8.45;;;2.65;;
64110;SDS011;50401;48.188;11.566;2024-03-23T15:36:03;4.50;;;2.05;;
64110;SDS011;50401;48.188;11.566;2024-03-23T15:38:31;7.20;;;2.47;;
64110;SDS011;50401;48.188;11.566;2024-03-23T15:40:57;12.40;;;2.92;;
64110;SDS011;50401;48.188;11.566;2024-03-23T15:43:23;7.97;;;2.72;;
64110;SDS011;50401;48.188;11.566;2024-03-23T15:45:58;13.68;;;3.50;;